Guidonia, Italy

6:55 PM CET on February 14, 2016 (GMT +0100)
Tivoli (RM), Roma | | Change Station
CLOSE
Current Station
Personal Weather Station
Location: Tivoli, LAZIO
Elevation: 830 ft
Nearby Weather Stations

Elev 830 ft 41.96 °N, 12.80 °E | Updated 30 seconds ago

Light Rain
Light Rain
59.2 °F
Feels Like 59.2 °F
N
8.0
Wind Variable Wind from SSE
Gusts 12.0 mph

Today
High -- | Low -- °F
--% Chance of Precip.
Yesterday
High -- | Low -- °F
Precip. -- in
Pressure 29.44 in
Visibility 5.0 miles
Clouds Mostly Cloudy 3000 ft
Dew Point 55 °F
Humidity 87%
Rainfall 0.15 in
Snow Depth Not available.
7:07 AM 5:39 PM
Waxing Crescent, 44% visible
METAR LIRA 141720Z 19006KT 8000 -RA BKN030 15/13 Q0997
Pressure 29.44 in
Visibility 5.0 miles
Clouds Mostly Cloudy 3000 ft
Dew Point 55 °F
Humidity 87%
Rainfall 0.15 in
Snow Depth Not available.
7:07 AM 5:39 PM
Waxing Crescent, 44% visible
METAR LIRA 141720Z 19006KT 8000 -RA BKN030 15/13 Q0997

10-Day Weather Forecast

Almanac

Astronomy

Feb. 14, 2016 Rise Set
Actual Time
Civil Twilight
Nautical Twilight
Astronomical Twilight
Moon
Length of Visible Light
Length of Day
Tomorrow will be .
, % of the Moon is Illuminated

Today's Extremes

Country Highs Country Lows

Community

WunderPhotos

Upload Photos

1,892,860 photos uploaded!

WunderBlog® & News

Nearby

Air Quality

  Air Quality AQ Index Pollutant
Not available.

Snow Depth

Station Depth Elevation

Earthquake Activity

City Distance Mag. Time & Date
Minimum magnitude displayed is 2.5.

Coastal Water Temperatures

Place Temperature

Stations

Nearby Weather Stations

Station Location Temp. Windchill Dew Point Humidity Wind Precip. Elev Updated Type